IST weather

Atatürk International Airport
Istanbul, İstanbul Province, Turkey

Public forecast

Using degrees Celsius for public forecast. Weather courtesy of forecast.io.

METAR (pilot weather report)

Retrieved 2019/03/20 06:20 UTC (31 minutes ago):

LTBA 200620Z 36013KT 340V050 7000 SCT008 BKN070 10/08 Q1022 NOSIG RMK RWY17L 01014KT RWY05 35011KT RWY23 03013KT

TAF (pilot weather forecast)

Forecast is more than 12 hours old.

Retrieved 2019/03/19 06:00 UTC (1 day ago):

TAF LTBA 190440Z 1906/2012 VRB02KT CAVOK BECMG 2000/2004 02012KT BECMG 2005/2008 SCT030 TEMPO 2009/2012 03015G27KT